Terminal Aerodrome Forecast
Issued by NWS

Home | Current Version | Previous Version | Graphics & Text | Print | Product List | Glossary On
Versions: 1 2 3 4 5 6 7 8 9 10 11 12 13 14 15 16 17 18
000
FTUS43 KMPX 230542
TAFRNH
TAF
KRNH 230542Z 2306/2406 21015KT P6SM BKN100
     FM231300 23011KT P6SM VCSH OVC050
      TEMPO 2314/2316 6SM -FZRAPL
     FM231700 27009KT P6SM SCT030 OVC050
     FM232000 29008KT P6SM OVC020=

USA.gov is the U.S. government's official web portal to all federal, state and local government web resources and services.